KCMH/CMH METAR and TAF weather

Enter ICAO airport designator
Station Type Date Time Source
KCMH METAR 2022/11/26 07:51 UTC NOAA

KCMH 260751Z 00000KT 10SM CLR M01/M02 A3020 RMK AO2 SLP231 T10061017


Station Type Date Time Source
KCMH Decoded METAR 2022/11/26 07:51 UTC NOAA

PORT COLUMBUS INTERNATIONAL AIRPORT, OH, United States (KCMH) 40-00N 82-53W 247M
Nov 26, 2022 - 02:51 AM EST / 2022.11.26 0751 UTC
Wind: Calm:0
Visibility: 10 mile(s):0
Sky conditions: clear
Temperature: 30.9 F (-0.6 C)
Dew Point: 28.9 F (-1.7 C)
Relative Humidity: 92%
Pressure (altimeter): 30.2 in. Hg (1022 hPa)
ob: KCMH 260751Z 00000KT 10SM CLR M01/M02 A3020 RMK AO2 SLP231 T10061017
cycle: 8

Station Type Date Time Source
KCMH TAF 2022/11/26 06:42 UTC NOAA

TAF KCMH 260539Z 2606/2706 VRB03KT P6SM SKC
FM261500 19007KT P6SM BKN250
FM270200 15006KT P6SM BKN150

Example: see airport list